Time;durP1;ratioP1;P1;durP2;ratioP2;P2;SDS_P1;SDS_P2;PMS_P1;PMS_P2;Temp;Humidity;BMP_temperature;BMP_pressure;BME280_temperature;BME280_humidity;BME280_pressure;Samples;Min_cycle;Max_cycle;Signal;HPM_P1;HPM_P2
2024/04/03 00:00:49;;;;;;;8.43;2.03;;;11.80;99.90;;;;;;7285438;19;20211;-78
2024/04/03 00:03:15;;;;;;;16.03;2.77;;;11.80;99.90;;;;;;7282388;19;20198;-78
2024/04/03 00:05:40;;;;;;;11.97;2.30;;;11.70;99.90;;;;;;7282941;19;20198;-77
2024/04/03 00:08:06;;;;;;;10.50;2.30;;;11.70;99.90;;;;;;7306899;19;20203;-78
2024/04/03 00:10:32;;;;;;;12.20;2.37;;;11.70;99.90;;;;;;7285348;19;20615;-78
2024/04/03 00:12:58;;;;;;;11.10;2.37;;;11.70;99.90;;;;;;7281661;19;20264;-78
2024/04/03 00:15:25;;;;;;;11.30;2.43;;;11.70;99.90;;;;;;7284596;19;20203;-78
2024/04/03 00:17:52;;;;;;;9.30;2.27;;;11.80;99.90;;;;;;7283584;19;20197;-78
2024/04/03 00:20:22;;;;;;;12.50;2.40;;;11.70;99.90;;;;;;7285241;19;20193;-78
2024/04/03 00:22:47;;;;;;;10.40;2.40;;;11.90;99.90;;;;;;7282925;19;20590;-78
2024/04/03 00:25:13;;;;;;;10.73;2.30;;;12.00;99.90;;;;;;7282411;19;20189;-78
2024/04/03 00:27:39;;;;;;;14.83;2.37;;;12.00;99.90;;;;;;7301547;19;20190;-78
2024/04/03 00:30:05;;;;;;;14.00;2.50;;;12.10;99.90;;;;;;7298367;19;20221;-78
2024/04/03 00:32:31;;;;;;;11.00;2.10;;;12.20;99.90;;;;;;7283497;19;20215;-78
2024/04/03 00:34:56;;;;;;;9.33;2.27;;;12.10;99.90;;;;;;7283524;19;20193;-78
2024/04/03 00:37:22;;;;;;;9.93;2.37;;;12.00;99.90;;;;;;7283424;19;20186;-78
2024/04/03 00:39:57;;;;;;;8.90;2.00;;;12.00;99.90;;;;;;7280905;19;20666;-78
2024/04/03 00:42:24;;;;;;;14.87;2.17;;;11.90;99.90;;;;;;7282280;19;20226;-78
2024/04/03 00:44:50;;;;;;;14.70;2.20;;;11.80;99.90;;;;;;7281991;19;20628;-78
2024/04/03 00:47:16;;;;;;;15.27;3.10;;;11.90;99.90;;;;;;7280907;19;20700;-78
2024/04/03 00:49:46;;;;;;;14.07;2.30;;;11.80;99.90;;;;;;7282920;19;20179;-78
2024/04/03 00:52:16;;;;;;;13.97;2.50;;;12.00;99.90;;;;;;7282880;19;20181;-78
2024/04/03 00:54:43;;;;;;;18.17;3.17;;;12.00;99.90;;;;;;7283236;19;20531;-78
2024/04/03 00:57:12;;;;;;;13.60;2.23;;;12.10;99.90;;;;;;7282627;19;20190;-78
2024/04/03 00:59:41;;;;;;;11.27;2.70;;;12.00;99.90;;;;;;7295484;19;20190;-78
2024/04/03 01:02:08;;;;;;;12.70;2.80;;;12.10;99.90;;;;;;7304440;19;20187;-78
2024/04/03 01:04:34;;;;;;;9.73;2.30;;;11.90;99.90;;;;;;7283442;19;20181;-78
2024/04/03 01:07:04;;;;;;;13.27;2.30;;;11.80;99.90;;;;;;7280630;19;20963;-78
2024/04/03 01:09:30;;;;;;;8.47;2.07;;;11.80;99.90;;;;;;7280744;19;20195;-78
2024/04/03 01:11:56;;;;;;;11.77;2.40;;;11.80;99.90;;;;;;7281157;19;20206;-79
2024/04/03 01:14:22;;;;;;;12.77;2.50;;;11.80;99.90;;;;;;7281912;19;20254;-79
2024/04/03 01:16:48;;;;;;;8.93;2.10;;;11.80;99.90;;;;;;7279146;19;20195;-78
2024/04/03 01:19:14;;;;;;;13.33;2.20;;;11.80;99.90;;;;;;7280196;19;20192;-78
2024/04/03 01:21:40;;;;;;;10.37;2.30;;;11.90;99.90;;;;;;7282543;19;20261;-78
2024/04/03 01:24:06;;;;;;;12.77;2.30;;;12.00;99.90;;;;;;7304448;19;20211;-79
2024/04/03 01:26:31;;;;;;;10.07;2.03;;;12.00;99.90;;;;;;7281341;19;20186;-78
2024/04/03 01:28:57;;;;;;;10.60;2.00;;;12.20;99.90;;;;;;7281769;19;25832;-78
2024/04/03 01:31:23;;;;;;;9.93;2.23;;;12.30;99.90;;;;;;7280639;19;20275;-79
2024/04/03 01:33:49;;;;;;;15.80;2.70;;;12.40;99.90;;;;;;7283570;19;21000;-78
2024/04/03 01:36:16;;;;;;;11.70;2.57;;;12.40;99.90;;;;;;7279999;19;20190;-78
2024/04/03 01:38:43;;;;;;;12.90;2.57;;;12.50;99.90;;;;;;7280139;19;20292;-78
2024/04/03 01:41:09;;;;;;;11.77;2.60;;;12.50;99.90;;;;;;7292135;19;20198;-79
2024/04/03 01:43:35;;;;;;;14.07;2.80;;;12.50;99.90;;;;;;7303397;19;20191;-79
2024/04/03 01:46:01;;;;;;;11.33;2.43;;;12.40;99.90;;;;;;7279951;19;20686;-79
2024/04/03 01:48:27;;;;;;;19.13;2.50;;;12.40;99.90;;;;;;7281039;19;20187;-79
2024/04/03 01:50:53;;;;;;;11.83;2.20;;;12.30;99.90;;;;;;7281461;19;20192;-78
2024/04/03 01:53:19;;;;;;;7.70;1.87;;;12.30;99.90;;;;;;7289673;19;20183;-78
2024/04/03 01:55:54;;;;;;;15.57;2.47;;;12.20;99.90;;;;;;7284808;19;20187;-79
2024/04/03 01:58:20;;;;;;;9.63;2.00;;;12.20;99.90;;;;;;7286831;19;20205;-79
2024/04/03 02:00:47;;;;;;;12.33;2.30;;;12.10;99.90;;;;;;7286172;19;20203;-78
2024/04/03 02:03:13;;;;;;;12.33;2.37;;;12.20;99.90;;;;;;7284373;19;20182;-79
2024/04/03 02:05:41;;;;;;;12.93;2.70;;;12.10;99.90;;;;;;7294059;19;20212;-78
2024/04/03 02:08:07;;;;;;;12.00;2.10;;;12.10;99.90;;;;;;7309490;19;20189;-78
2024/04/03 02:10:33;;;;;;;16.87;2.67;;;12.00;99.90;;;;;;7287819;19;20187;-78
2024/04/03 02:12:59;;;;;;;11.83;2.10;;;11.90;99.90;;;;;;7287286;19;20178;-78
2024/04/03 02:15:24;;;;;;;10.27;2.23;;;11.80;99.90;;;;;;7286884;19;20220;-78
2024/04/03 02:17:50;;;;;;;10.43;2.17;;;11.80;99.90;;;;;;7285835;19;20204;-78
2024/04/03 02:20:16;;;;;;;14.03;2.60;;;11.80;99.90;;;;;;7288124;19;20331;-78
2024/04/03 02:22:41;;;;;;;14.17;2.80;;;11.70;99.90;;;;;;7286593;19;20517;-78
2024/04/03 02:25:07;;;;;;;8.37;1.73;;;11.80;99.90;;;;;;7303246;19;20183;-78
2024/04/03 02:27:33;;;;;;;10.90;1.97;;;11.70;99.90;;;;;;7287236;19;20293;-78
2024/04/03 02:30:00;;;;;;;13.97;2.40;;;11.70;99.90;;;;;;7286352;19;20596;-78
2024/04/03 02:32:25;;;;;;;11.37;2.50;;;11.70;99.90;;;;;;7285460;19;20199;-78
2024/04/03 02:34:55;;;;;;;11.67;2.17;;;11.70;99.90;;;;;;7287234;19;20299;-78
2024/04/03 02:37:20;;;;;;;8.80;2.50;;;11.80;99.90;;;;;;7286510;19;20195;-78
2024/04/03 02:39:46;;;;;;;10.27;1.90;;;11.80;99.90;;;;;;7287283;19;20199;-78
2024/04/03 02:42:12;;;;;;;10.00;2.10;;;11.80;99.90;;;;;;7283871;19;20309;-78
2024/04/03 02:44:38;;;;;;;14.57;2.57;;;11.80;99.90;;;;;;7308241;19;20187;-78
2024/04/03 02:47:03;;;;;;;11.13;2.20;;;11.80;99.90;;;;;;7288367;19;20968;-78
2024/04/03 02:49:30;;;;;;;10.57;2.10;;;11.80;99.90;;;;;;7286614;19;20541;-78
2024/04/03 02:51:56;;;;;;;8.00;1.90;;;11.90;99.90;;;;;;7284229;19;20289;-78
2024/04/03 02:54:21;;;;;;;10.50;1.90;;;11.90;99.90;;;;;;7286669;19;20203;-78
2024/04/03 02:56:47;;;;;;;9.07;2.20;;;11.90;99.90;;;;;;7286960;19;20186;-78
2024/04/03 02:59:13;;;;;;;13.63;2.53;;;11.90;99.90;;;;;;7284149;19;20229;-78
2024/04/03 03:01:39;;;;;;;13.80;2.87;;;12.00;99.90;;;;;;7295474;19;20195;-78
2024/04/03 03:04:05;;;;;;;11.50;2.30;;;12.00;99.90;;;;;;7304146;19;20225;-78
2024/04/03 03:06:32;;;;;;;12.70;2.20;;;11.90;99.90;;;;;;7285294;19;21020;-77
2024/04/03 03:08:57;;;;;;;10.37;2.00;;;11.90;99.90;;;;;;7285260;19;20194;-78
2024/04/03 03:11:23;;;;;;;14.60;2.07;;;12.00;99.90;;;;;;7284029;19;20256;-79
2024/04/03 03:13:49;;;;;;;9.27;2.20;;;12.10;99.90;;;;;;7285278;19;20190;-78
2024/04/03 03:16:21;;;;;;;8.27;1.87;;;12.00;99.90;;;;;;7285341;19;20592;-79
2024/04/03 03:18:47;;;;;;;8.07;1.77;;;12.00;99.90;;;;;;7283826;19;20197;-78
2024/04/03 03:21:12;;;;;;;11.47;2.03;;;12.10;99.90;;;;;;7285366;19;20196;-78
2024/04/03 03:23:38;;;;;;;11.90;2.33;;;12.00;99.90;;;;;;7301674;19;20179;-78
2024/04/03 03:26:04;;;;;;;9.07;1.80;;;11.90;99.90;;;;;;7299282;19;20191;-78
2024/04/03 03:28:30;;;;;;;5.70;1.50;;;11.80;99.90;;;;;;7282817;19;20197;-78
2024/04/03 03:30:58;;;;;;;8.60;1.80;;;11.80;99.90;;;;;;7284140;19;20203;-79
2024/04/03 03:33:25;;;;;;;8.90;1.80;;;11.80;99.90;;;;;;7284749;19;20190;-78
2024/04/03 03:35:54;;;;;;;12.30;2.00;;;11.70;99.90;;;;;;7284807;19;20189;-78
2024/04/03 03:38:20;;;;;;;6.07;1.50;;;11.80;99.90;;;;;;7283938;19;20222;-78
2024/04/03 03:40:47;;;;;;;8.10;1.40;;;11.70;99.90;;;;;;7284653;19;20197;-78
2024/04/03 03:43:16;;;;;;;8.83;1.50;;;11.70;99.90;;;;;;7282470;19;20197;-78
2024/04/03 03:45:43;;;;;;;7.87;1.43;;;11.80;99.90;;;;;;7303249;19;20303;-79
2024/04/03 03:48:10;;;;;;;5.83;1.37;;;11.70;99.90;;;;;;7274465;19;20253;-79
2024/04/03 03:53:21;;;;;;;10.20;1.60;;;11.70;99.90;;;;;;7182542;19;2004777;-79
2024/04/03 03:55:47;;;;;;;8.47;1.50;;;11.70;99.90;;;;;;7284049;19;20693;-79
2024/04/03 03:58:13;;;;;;;7.53;1.70;;;11.70;99.90;;;;;;7284615;19;20214;-79
2024/04/03 04:00:39;;;;;;;8.53;1.50;;;11.80;99.90;;;;;;7298860;19;20194;-79
2024/04/03 04:03:04;;;;;;;7.83;1.90;;;11.70;99.90;;;;;;7301597;19;20705;-79
2024/04/03 04:05:30;;;;;;;4.63;1.27;;;11.60;99.90;;;;;;7284441;19;20256;-78
2024/04/03 04:07:56;;;;;;;9.80;2.10;;;11.50;99.90;;;;;;7284120;19;20202;-78
2024/04/03 04:10:22;;;;;;;6.70;1.40;;;11.50;99.90;;;;;;7284934;19;20190;-78
2024/04/03 04:12:48;;;;;;;5.97;1.70;;;11.50;99.90;;;;;;7285391;19;20198;-78
2024/04/03 04:15:14;;;;;;;8.40;1.60;;;11.50;99.90;;;;;;7279185;19;20944;-79
2024/04/03 04:17:40;;;;;;;10.43;1.60;;;11.50;99.90;;;;;;7286984;19;20194;-79
2024/04/03 04:20:07;;;;;;;7.87;1.33;;;11.50;99.90;;;;;;7306024;19;20256;-79
2024/04/03 04:22:33;;;;;;;5.20;1.33;;;11.50;99.90;;;;;;7284324;19;20181;-79
2024/04/03 04:25:00;;;;;;;6.33;1.30;;;11.50;99.90;;;;;;7282150;19;20184;-79
2024/04/03 04:27:26;;;;;;;8.53;1.73;;;11.60;99.90;;;;;;7283653;19;20278;-79
2024/04/03 04:29:52;;;;;;;5.63;1.50;;;11.60;99.90;;;;;;7283747;19;20701;-79
2024/04/03 04:32:17;;;;;;;4.97;1.30;;;11.70;99.90;;;;;;7283126;19;20195;-79
2024/04/03 04:34:43;;;;;;;10.87;1.90;;;11.70;99.90;;;;;;7282518;19;20714;-79
2024/04/03 04:37:09;;;;;;;4.70;1.50;;;11.60;99.90;;;;;;7293517;19;20189;-78
2024/04/03 04:39:36;;;;;;;4.57;1.07;;;11.60;99.90;;;;;;7306299;19;20190;-79
2024/04/03 04:42:02;;;;;;;6.97;1.60;;;11.50;99.90;;;;;;7280420;19;20182;-79
2024/04/03 04:44:28;;;;;;;6.40;1.53;;;11.50;99.90;;;;;;7282161;19;20626;-78
2024/04/03 04:46:56;;;;;;;6.53;1.70;;;11.60;99.90;;;;;;7284666;19;20684;-78
2024/04/03 04:49:23;;;;;;;9.63;1.63;;;11.40;99.90;;;;;;7282512;19;20193;-78
2024/04/03 04:51:49;;;;;;;10.00;1.73;;;11.60;99.90;;;;;;7281292;19;20192;-78
2024/04/03 04:54:16;;;;;;;4.93;1.30;;;11.60;99.90;;;;;;7282148;19;20182;-78
2024/04/03 04:56:43;;;;;;;6.50;1.40;;;11.60;99.90;;;;;;7283574;19;20689;-78
2024/04/03 04:59:09;;;;;;;6.23;1.30;;;11.50;99.90;;;;;;7298621;19;20189;-78
2024/04/03 05:01:36;;;;;;;5.83;1.47;;;11.40;99.90;;;;;;7297048;19;20191;-79
2024/04/03 05:04:02;;;;;;;4.10;1.13;;;11.50;99.90;;;;;;7281674;19;20273;-79
2024/04/03 05:06:28;;;;;;;8.53;1.47;;;11.50;99.90;;;;;;7283761;19;20293;-79
2024/04/03 05:08:56;;;;;;;4.70;1.60;;;11.50;99.90;;;;;;7281930;19;20191;-78
2024/04/03 05:11:22;;;;;;;5.33;1.30;;;11.50;99.90;;;;;;7280793;19;20181;-79
2024/04/03 05:13:48;;;;;;;7.03;1.40;;;11.40;99.90;;;;;;7280828;19;20181;-78
2024/04/03 05:16:19;;;;;;;6.03;1.33;;;11.30;99.90;;;;;;7282117;19;20185;-78
2024/04/03 05:18:45;;;;;;;5.80;1.20;;;11.40;99.90;;;;;;7282701;19;20177;-78
2024/04/03 05:21:11;;;;;;;5.00;1.20;;;11.40;99.90;;;;;;7281282;19;20184;-77
2024/04/03 05:23:38;;;;;;;7.20;1.83;;;11.30;99.90;;;;;;7302102;19;20177;-78
2024/04/03 05:26:12;;;;;;;6.03;1.60;;;11.30;99.90;;;;;;7283097;19;20220;-77
2024/04/03 05:28:41;;;;;;;5.70;1.57;;;11.30;99.90;;;;;;7282670;19;20556;-78
2024/04/03 05:31:09;;;;;;;4.60;1.43;;;11.30;99.90;;;;;;7280756;19;20186;-79
2024/04/03 05:33:35;;;;;;;4.20;1.37;;;11.40;99.90;;;;;;7283707;19;20193;-77
2024/04/03 05:36:03;;;;;;;4.30;1.40;;;11.40;99.90;;;;;;7281326;19;20193;-77
2024/04/03 05:38:29;;;;;;;4.03;1.37;;;11.40;99.90;;;;;;7281452;19;20540;-77
2024/04/03 05:40:55;;;;;;;5.90;1.40;;;11.30;99.90;;;;;;7280486;19;20189;-78
2024/04/03 05:43:22;;;;;;;6.07;1.30;;;11.30;99.90;;;;;;7282003;19;20187;-78
2024/04/03 05:45:50;;;;;;;7.80;1.70;;;11.30;99.90;;;;;;7281600;19;20421;-78
2024/04/03 05:48:16;;;;;;;4.93;1.40;;;11.30;99.90;;;;;;7279701;19;20573;-78
2024/04/03 05:50:41;;;;;;;6.53;1.60;;;11.40;99.90;;;;;;7281134;19;20181;-78
2024/04/03 05:53:07;;;;;;;6.40;1.60;;;11.40;99.90;;;;;;7302163;19;20193;-78
2024/04/03 05:55:33;;;;;;;7.23;2.10;;;11.50;99.90;;;;;;7280886;19;20295;-78
2024/04/03 05:58:00;;;;;;;6.97;1.57;;;11.50;99.90;;;;;;7279828;19;20203;-78
2024/04/03 06:00:26;;;;;;;8.57;1.77;;;11.60;99.90;;;;;;7280447;19;20182;-78
2024/04/03 06:02:52;;;;;;;8.90;2.00;;;11.60;99.90;;;;;;7281039;19;20531;-79
2024/04/03 06:05:18;;;;;;;4.87;1.70;;;11.70;99.90;;;;;;7281194;19;20192;-78
2024/04/03 06:07:45;;;;;;;6.03;1.83;;;11.60;99.90;;;;;;7280053;19;20279;-78
2024/04/03 06:10:12;;;;;;;7.07;1.90;;;11.70;99.90;;;;;;7281702;19;20193;-78
2024/04/03 06:12:42;;;;;;;8.80;1.73;;;11.80;99.90;;;;;;7302859;19;20573;-77
2024/04/03 06:15:08;;;;;;;5.90;1.73;;;12.00;99.90;;;;;;7281268;19;20213;-78
2024/04/03 06:17:34;;;;;;;6.77;1.63;;;12.10;99.90;;;;;;7279408;19;20204;-78
2024/04/03 06:20:00;;;;;;;4.83;1.77;;;12.20;99.90;;;;;;7281069;19;20187;-78
2024/04/03 06:22:26;;;;;;;7.70;1.90;;;12.30;99.90;;;;;;7280956;19;20249;-78
2024/04/03 06:24:52;;;;;;;5.73;1.60;;;12.20;99.90;;;;;;7278045;19;20256;-78
2024/04/03 06:27:18;;;;;;;4.47;2.00;;;12.20;99.90;;;;;;7278935;19;20212;-77
2024/04/03 06:29:44;;;;;;;6.00;1.60;;;12.10;99.90;;;;;;7281401;19;20190;-78
2024/04/03 06:32:10;;;;;;;7.37;1.57;;;12.20;99.90;;;;;;7293239;19;20257;-78
2024/04/03 06:34:36;;;;;;;5.63;1.80;;;12.10;99.90;;;;;;7300398;19;20203;-78
2024/04/03 06:37:02;;;;;;;7.97;2.13;;;12.20;99.90;;;;;;7280523;19;20189;-78
2024/04/03 06:39:28;;;;;;;5.53;1.83;;;12.30;99.90;;;;;;7286283;19;20215;-78
2024/04/03 06:41:53;;;;;;;6.70;1.60;;;12.10;99.90;;;;;;7287394;19;20193;-78
2024/04/03 06:44:19;;;;;;;5.47;1.83;;;12.30;99.90;;;;;;7284580;19;20199;-78
2024/04/03 06:46:46;;;;;;;5.40;1.60;;;12.30;99.90;;;;;;7286897;19;20194;-78
2024/04/03 06:49:12;;;;;;;4.00;1.10;;;12.30;99.90;;;;;;7287039;19;20215;-78
2024/04/03 06:51:38;;;;;;;7.70;1.90;;;12.30;99.90;;;;;;7309068;19;20189;-78
2024/04/03 06:54:07;;;;;;;9.67;1.67;;;12.20;99.90;;;;;;7284191;19;20236;-78
2024/04/03 06:56:33;;;;;;;4.73;1.30;;;12.10;99.90;;;;;;7286010;19;20190;-78
2024/04/03 06:58:59;;;;;;;2.63;1.23;;;12.00;99.90;;;;;;7285400;19;20212;-78
2024/04/03 07:01:25;;;;;;;4.40;1.53;;;12.10;99.90;;;;;;7286643;19;20197;-78
2024/04/03 07:03:53;;;;;;;4.10;1.50;;;12.20;99.90;;;;;;7282558;19;20216;-79
2024/04/03 07:06:19;;;;;;;4.73;1.50;;;12.20;99.90;;;;;;7284461;19;20183;-78
2024/04/03 07:08:45;;;;;;;4.43;1.30;;;12.30;99.90;;;;;;7284353;19;20261;-78
2024/04/03 07:11:11;;;;;;;4.47;1.50;;;12.40;99.90;;;;;;7288802;19;20190;-78
2024/04/03 07:13:37;;;;;;;6.73;1.63;;;12.40;99.90;;;;;;7307576;19;20770;-78
2024/04/03 07:16:03;;;;;;;5.27;1.40;;;12.30;99.90;;;;;;7286221;19;20186;-78
2024/04/03 07:18:28;;;;;;;4.60;1.17;;;12.40;99.90;;;;;;7286016;19;20198;-79
2024/04/03 07:20:57;;;;;;;3.43;1.20;;;12.60;99.90;;;;;;7287132;19;20185;-78
2024/04/03 07:23:26;;;;;;;6.57;1.30;;;12.70;99.90;;;;;;7283930;19;20181;-78
2024/04/03 07:25:56;;;;;;;4.30;1.27;;;13.10;99.90;;;;;;7285434;19;20658;-78
2024/04/03 07:28:22;;;;;;;5.70;1.20;;;13.10;99.90;;;;;;7282653;19;20216;-79
2024/04/03 07:30:48;;;;;;;5.43;1.37;;;13.70;99.90;;;;;;7279639;19;20199;-77
2024/04/03 07:33:14;;;;;;;4.30;1.43;;;14.10;99.90;;;;;;7282790;19;20216;-79
2024/04/03 07:35:40;;;;;;;5.17;1.30;;;14.10;99.90;;;;;;7295880;19;20181;-79
2024/04/03 07:38:06;;;;;;;4.67;1.30;;;13.80;99.90;;;;;;7304495;19;20221;-78
2024/04/03 07:40:32;;;;;;;6.77;1.43;;;13.70;99.90;;;;;;7281050;19;20660;-79
2024/04/03 07:42:58;;;;;;;3.00;1.10;;;13.70;99.90;;;;;;7282766;19;20221;-78
2024/04/03 07:45:24;;;;;;;2.40;0.93;;;13.70;99.90;;;;;;7283685;19;20194;-78
2024/04/03 07:47:50;;;;;;;3.93;1.00;;;13.50;99.90;;;;;;7283378;19;20191;-77
2024/04/03 07:50:16;;;;;;;2.43;0.90;;;13.50;99.90;;;;;;7281506;19;20219;-79
2024/04/03 07:52:43;;;;;;;6.33;1.17;;;13.40;99.90;;;;;;7282996;19;20191;-77
2024/04/03 07:55:11;;;;;;;2.27;0.93;;;13.20;99.90;;;;;;7307218;19;20705;-78
2024/04/03 07:57:37;;;;;;;4.03;1.03;;;13.30;99.90;;;;;;7285600;19;20212;-77
2024/04/03 08:00:08;;;;;;;2.87;1.00;;;13.30;99.90;;;;;;7282967;19;21016;-78
2024/04/03 08:02:41;;;;;;;4.13;1.00;;;13.20;99.90;;;;;;7286193;19;20262;-78
2024/04/03 08:05:08;;;;;;;1.60;0.90;;;13.20;99.90;;;;;;7285377;19;20294;-78
2024/04/03 08:07:35;;;;;;;3.13;1.17;;;13.20;99.90;;;;;;7284078;19;20212;-78
2024/04/03 08:10:08;;;;;;;2.77;1.00;;;13.30;99.90;;;;;;7283186;19;20191;-78
2024/04/03 08:12:36;;;;;;;3.20;1.00;;;13.20;99.90;;;;;;7283698;19;20192;-78
2024/04/03 08:15:02;;;;;;;2.23;0.90;;;13.10;99.90;;;;;;7284621;19;20269;-78
2024/04/03 08:17:28;;;;;;;4.00;1.27;;;13.10;99.90;;;;;;7280147;19;20250;-77
2024/04/03 08:19:57;;;;;;;3.03;1.00;;;13.00;99.90;;;;;;7282886;19;20185;-78
2024/04/03 08:22:23;;;;;;;3.73;1.10;;;13.00;99.90;;;;;;7282804;19;20207;-77
2024/04/03 08:24:50;;;;;;;1.60;0.80;;;13.10;99.90;;;;;;7281841;19;20583;-78
2024/04/03 08:27:18;;;;;;;2.20;0.80;;;13.20;99.90;;;;;;7283118;19;21050;-78
2024/04/03 08:29:46;;;;;;;1.60;0.80;;;13.50;99.90;;;;;;7283219;19;20191;-78
2024/04/03 08:32:16;;;;;;;4.07;0.93;;;13.50;99.90;;;;;;7283724;19;20191;-78
2024/04/03 08:34:42;;;;;;;2.97;0.90;;;13.60;99.90;;;;;;7283841;19;20189;-78
2024/04/03 08:37:10;;;;;;;1.13;0.60;;;13.70;99.90;;;;;;7303622;19;20954;-78
2024/04/03 08:39:36;;;;;;;2.83;0.80;;;13.70;99.90;;;;;;7283383;19;20197;-78
2024/04/03 08:42:02;;;;;;;2.07;0.90;;;13.30;99.90;;;;;;7285074;19;20292;-78
2024/04/03 08:44:35;;;;;;;2.13;0.70;;;13.00;99.90;;;;;;7282739;19;20186;-77
2024/04/03 08:47:02;;;;;;;2.67;0.90;;;12.90;99.90;;;;;;7282953;19;20191;-78
2024/04/03 08:49:30;;;;;;;1.73;0.70;;;12.90;99.90;;;;;;7282787;19;20199;-77
2024/04/03 08:52:06;;;;;;;1.90;0.60;;;12.90;99.90;;;;;;7282881;19;20198;-78
2024/04/03 08:54:33;;;;;;;2.97;0.80;;;12.80;99.90;;;;;;7281058;19;20191;-78
2024/04/03 08:57:03;;;;;;;1.40;0.60;;;12.80;99.90;;;;;;7283598;19;21672;-78
2024/04/03 08:59:33;;;;;;;2.07;0.60;;;12.80;99.90;;;;;;7282220;19;20196;-77
2024/04/03 09:01:58;;;;;;;2.63;0.97;;;12.90;99.90;;;;;;7278606;19;20239;-77
2024/04/03 09:04:25;;;;;;;1.17;0.60;;;12.90;99.90;;;;;;7278972;19;20251;-78
2024/04/03 09:06:50;;;;;;;2.80;0.60;;;13.00;99.90;;;;;;7280867;19;20199;-77
2024/04/03 09:09:25;;;;;;;3.50;1.67;;;13.00;99.90;;;;;;7281863;19;20214;-79
2024/04/03 09:11:59;;;;;;;4.63;0.73;;;13.20;99.90;;;;;;7280048;19;20202;-78
2024/04/03 09:14:25;;;;;;;1.17;0.60;;;13.20;99.90;;;;;;7278996;19;20260;-77
2024/04/03 09:16:57;;;;;;;5.23;0.90;;;13.20;99.90;;;;;;7280841;19;20726;-78
2024/04/03 09:19:23;;;;;;;2.53;0.50;;;13.30;99.90;;;;;;7281362;19;20195;-78
2024/04/03 09:21:49;;;;;;;4.37;1.00;;;13.30;99.90;;;;;;7279305;19;20219;-78
2024/04/03 09:24:14;;;;;;;3.00;0.90;;;13.20;99.90;;;;;;7279390;19;20250;-78
2024/04/03 09:27:01;;;;;;;2.73;0.70;;;13.20;99.90;;;;;;7288826;19;20710;-78
2024/04/03 09:29:27;;;;;;;1.37;0.80;;;13.30;99.90;;;;;;7282566;19;20195;-77
2024/04/03 09:32:02;;;;;;;1.20;0.50;;;13.40;99.90;;;;;;7278191;19;20198;-77
2024/04/03 09:34:31;;;;;;;11.23;1.27;;;13.30;99.90;;;;;;7280758;19;20266;-78
2024/04/03 09:36:59;;;;;;;6.40;0.80;;;13.20;99.90;;;;;;7281188;19;20216;-78
2024/04/03 09:39:25;;;;;;;4.77;0.90;;;13.40;99.90;;;;;;7279664;19;20194;-78
2024/04/03 09:41:52;;;;;;;3.17;0.87;;;13.60;99.90;;;;;;7280245;19;20199;-77
2024/04/03 09:44:19;;;;;;;1.53;0.70;;;13.60;99.90;;;;;;7280416;19;20658;-78
2024/04/03 09:46:53;;;;;;;2.67;0.80;;;13.50;99.90;;;;;;7281027;19;20209;-78
2024/04/03 09:49:24;;;;;;;0.93;0.50;;;13.50;99.90;;;;;;7279848;19;20202;-77
2024/04/03 09:51:50;;;;;;;2.17;0.60;;;13.60;99.90;;;;;;7280718;19;20282;-78
2024/04/03 09:54:18;;;;;;;2.97;0.80;;;13.60;99.90;;;;;;7282051;19;20207;-78
2024/04/03 09:56:44;;;;;;;1.90;0.60;;;13.80;99.90;;;;;;7282179;19;20527;-78
2024/04/03 09:59:12;;;;;;;4.23;0.60;;;13.80;99.90;;;;;;7291312;19;20276;-78
2024/04/03 10:01:39;;;;;;;3.67;0.77;;;13.90;99.90;;;;;;7302720;19;20189;-78
2024/04/03 10:04:05;;;;;;;1.10;0.60;;;14.10;99.90;;;;;;7280960;19;20562;-77
2024/04/03 10:06:39;;;;;;;3.20;0.93;;;14.10;99.90;;;;;;7280696;19;20316;-78
2024/04/03 10:09:25;;;;;;;0.77;0.60;;;14.10;99.90;;;;;;7280042;19;20193;-77
2024/04/03 10:12:19;;;;;;;2.23;0.60;;;14.00;99.90;;;;;;7178069;19;2004655;-78
2024/04/03 10:14:55;;;;;;;1.40;0.70;;;14.00;99.90;;;;;;7184633;19;2004766;-78
2024/04/03 10:17:22;;;;;;;2.20;0.70;;;14.10;99.90;;;;;;7286431;19;20199;-77
2024/04/03 10:19:48;;;;;;;4.63;0.63;;;14.20;99.90;;;;;;7285950;19;20204;-78
2024/04/03 10:22:17;;;;;;;2.97;0.63;;;14.30;99.90;;;;;;7287790;19;20189;-78
2024/04/03 10:24:48;;;;;;;2.50;0.80;;;14.40;99.90;;;;;;7286444;19;20314;-78
2024/04/03 10:27:14;;;;;;;1.30;0.70;;;14.60;99.90;;;;;;7285397;19;20188;-77
2024/04/03 10:29:40;;;;;;;1.73;0.60;;;14.70;99.90;;;;;;7295321;19;20189;-78
2024/04/03 10:32:06;;;;;;;1.17;0.60;;;15.10;99.90;;;;;;7304811;19;20265;-78
2024/04/03 10:34:33;;;;;;;1.83;0.57;;;15.40;99.90;;;;;;7287073;19;20193;-78
2024/04/03 10:36:59;;;;;;;2.47;0.70;;;15.80;99.90;;;;;;7285673;19;20191;-78
2024/04/03 10:39:25;;;;;;;1.37;0.60;;;16.10;99.90;;;;;;7286932;19;20191;-78
2024/04/03 10:41:59;;;;;;;1.73;0.73;;;16.00;99.90;;;;;;7288045;19;20207;-78
2024/04/03 10:44:25;;;;;;;3.77;0.77;;;15.80;99.90;;;;;;7284992;19;20213;-79
2024/04/03 10:46:51;;;;;;;2.93;0.50;;;15.80;99.90;;;;;;7285403;19;20186;-77
2024/04/03 10:49:18;;;;;;;1.63;0.90;;;15.80;99.90;;;;;;7285942;19;20654;-77
2024/04/03 10:51:44;;;;;;;1.63;0.60;;;15.70;99.90;;;;;;7286834;19;20186;-78
2024/04/03 10:54:12;;;;;;;3.97;1.00;;;15.70;99.90;;;;;;7298308;19;20186;-77
2024/04/03 10:56:38;;;;;;;2.97;0.90;;;15.60;99.90;;;;;;7307192;19;20598;-77
2024/04/03 10:59:03;;;;;;;0.90;0.60;;;15.50;99.90;;;;;;7285752;19;20194;-77
2024/04/03 11:01:30;;;;;;;1.43;0.90;;;15.60;99.90;;;;;;7287120;19;20318;-77
2024/04/03 11:03:56;;;;;;;12.13;2.03;;;15.80;99.90;;;;;;7285496;19;20193;-77
2024/04/03 11:06:23;;;;;;;5.90;1.17;;;15.70;99.90;;;;;;7284579;19;20186;-77
2024/04/03 11:08:49;;;;;;;2.03;0.80;;;15.60;99.90;;;;;;7286349;19;20235;-77
2024/04/03 11:11:16;;;;;;;2.67;1.10;;;15.60;99.90;;;;;;7285848;19;20206;-78
2024/04/03 11:13:48;;;;;;;2.30;0.90;;;15.90;99.90;;;;;;7285922;19;20182;-77
2024/04/03 11:16:16;;;;;;;5.13;1.20;;;17.10;99.90;;;;;;7285290;19;20201;-77
2024/04/03 11:18:43;;;;;;;1.67;0.80;;;18.70;99.90;;;;;;7285435;19;20199;-77
2024/04/03 11:21:10;;;;;;;1.50;0.70;;;19.60;99.90;;;;;;7308806;19;20189;-77
2024/04/03 11:23:40;;;;;;;2.37;0.80;;;20.30;99.90;;;;;;7283388;19;20205;-77
2024/04/03 11:26:06;;;;;;;4.80;0.80;;;20.60;99.90;;;;;;7284329;19;20658;-78
2024/04/03 11:28:33;;;;;;;4.23;0.93;;;19.60;99.90;;;;;;7286242;19;20254;-77
2024/04/03 11:30:59;;;;;;;2.87;0.87;;;19.10;99.90;;;;;;7284618;19;20193;-78
2024/04/03 11:33:25;;;;;;;2.60;0.80;;;19.40;99.90;;;;;;7285435;19;20189;-77
2024/04/03 11:35:51;;;;;;;5.33;1.30;;;20.10;99.90;;;;;;7283915;19;20186;-78
2024/04/03 11:38:16;;;;;;;3.83;1.03;;;20.70;99.90;;;;;;7285698;19;20903;-77
2024/04/03 11:40:42;;;;;;;5.80;1.00;;;21.00;99.90;;;;;;7285699;19;20182;-77
2024/04/03 11:43:08;;;;;;;2.73;0.80;;;21.10;99.90;;;;;;7305649;19;20191;-78
2024/04/03 11:45:35;;;;;;;4.40;0.70;;;21.20;99.90;;;;;;7282534;19;20187;-78
2024/04/03 11:48:01;;;;;;;6.80;1.00;;;21.20;99.90;;;;;;7285847;19;20183;-77
2024/04/03 11:50:27;;;;;;;15.73;1.80;;;20.50;99.90;;;;;;7284415;19;20195;-77
2024/04/03 11:52:53;;;;;;;5.77;0.83;;;20.90;99.90;;;;;;7283859;19;20189;-77
2024/04/03 11:55:18;;;;;;;3.83;0.90;;;21.00;99.90;;;;;;7286341;19;20223;-77
2024/04/03 11:57:44;;;;;;;2.63;0.73;;;21.10;99.90;;;;;;7283572;19;20191;-78
2024/04/03 12:00:13;;;;;;;5.03;1.00;;;21.40;99.90;;;;;;7301899;19;20192;-77
2024/04/03 12:02:41;;;;;;;5.03;1.00;;;21.90;99.90;;;;;;7305486;19;20189;-78
2024/04/03 12:05:07;;;;;;;3.87;0.70;;;21.70;99.90;;;;;;7284264;19;20199;-78
2024/04/03 12:07:35;;;;;;;2.90;0.70;;;20.80;99.90;;;;;;7284877;19;20203;-78
2024/04/03 12:10:06;;;;;;;3.50;0.80;;;20.30;99.90;;;;;;7283626;19;20184;-78
2024/04/03 12:12:37;;;;;;;4.33;0.80;;;20.40;99.90;;;;;;7282649;19;20196;-78
2024/04/03 12:15:04;;;;;;;4.33;0.90;;;20.70;99.90;;;;;;7283468;19;20197;-78
2024/04/03 12:17:32;;;;;;;7.20;0.90;;;20.10;99.90;;;;;;7283731;19;20206;-78
2024/04/03 12:22:26;;;;;;;4.30;0.77;;;21.10;99.90;;;;;;7285808;19;20191;-78
2024/04/03 12:24:52;;;;;;;4.43;1.00;;;21.10;99.90;;;;;;7283845;19;20204;-78
2024/04/03 12:27:18;;;;;;;6.13;0.80;;;21.20;99.90;;;;;;7286063;19;20269;-77
2024/04/03 12:29:43;;;;;;;6.37;0.80;;;20.70;99.90;;;;;;7282960;19;20184;-77
2024/04/03 12:32:09;;;;;;;3.37;0.80;;;20.50;99.90;;;;;;7304943;19;20682;-78
2024/04/03 12:34:35;;;;;;;5.33;0.80;;;20.80;99.90;;;;;;7285411;19;20198;-78
2024/04/03 12:37:01;;;;;;;5.00;0.80;;;20.90;99.90;;;;;;7283538;19;20211;-78
2024/04/03 12:39:26;;;;;;;5.47;0.83;;;21.10;99.90;;;;;;7282251;19;20192;-78
2024/04/03 12:41:53;;;;;;;4.17;0.77;;;20.70;99.90;;;;;;7284059;19;20186;-78
2024/04/03 12:44:18;;;;;;;4.57;0.93;;;20.30;99.90;;;;;;7282429;19;20534;-78
2024/04/03 12:46:45;;;;;;;2.80;0.60;;;19.90;99.90;;;;;;7283178;19;20201;-78